createdAt,value
2018-01-24T00:00:42.789Z,38.20
2018-01-24T00:03:11.471Z,43.30
2018-01-24T00:05:40.380Z,43.08
2018-01-24T00:08:09.080Z,43.92
2018-01-24T00:10:37.590Z,35.35
2018-01-24T00:13:06.110Z,34.95
2018-01-24T00:15:34.566Z,36.05
2018-01-24T00:18:03.067Z,37.85
2018-01-24T00:20:31.547Z,40.90
2018-01-24T00:23:00.028Z,32.47
2018-01-24T00:25:28.620Z,30.33
2018-01-24T00:27:58.075Z,31.48
2018-01-24T00:30:26.544Z,32.75
2018-01-24T00:32:54.982Z,30.65
2018-01-24T00:35:23.672Z,29.83
2018-01-24T00:37:52.099Z,29.23
2018-01-24T00:40:20.580Z,26.95
2018-01-24T00:42:49.298Z,24.77
2018-01-24T00:45:17.790Z,29.05
2018-01-24T00:47:46.256Z,27.52
2018-01-24T00:50:15.117Z,23.17
2018-01-24T00:52:43.647Z,25.48
2018-01-24T00:55:12.316Z,27.60
2018-01-24T00:57:41.219Z,27.73
2018-01-24T01:00:10.069Z,27.37
2018-01-24T01:02:38.544Z,24.73
2018-01-24T01:05:07.140Z,28.40
2018-01-24T01:07:35.601Z,23.50
2018-01-24T01:10:04.060Z,23.87
2018-01-24T01:12:32.594Z,24.80
2018-01-24T01:15:01.080Z,22.60
2018-01-24T01:17:29.713Z,23.35
2018-01-24T01:19:58.211Z,28.25
2018-01-24T01:22:26.622Z,24.08
2018-01-24T01:24:55.057Z,22.60
2018-01-24T01:27:24.552Z,22.67
2018-01-24T01:29:52.984Z,22.52
2018-01-24T01:32:21.433Z,26.98
2018-01-24T01:34:49.996Z,23.85
2018-01-24T01:37:18.433Z,32.50
2018-01-24T01:39:46.985Z,27.37
2018-01-24T01:42:15.633Z,25.60
2018-01-24T01:44:44.201Z,29.48
2018-01-24T01:47:12.830Z,28.15
2018-01-24T01:49:41.496Z,26.20
2018-01-24T01:52:10.057Z,28.30
2018-01-24T01:54:38.518Z,26.30
2018-01-24T01:57:07.128Z,32.55
2018-01-24T01:59:36.008Z,25.77
2018-01-24T02:02:04.510Z,23.48
2018-01-24T02:04:32.974Z,28.33
2018-01-24T02:07:01.487Z,28.85
2018-01-24T02:09:29.912Z,24.93
2018-01-24T02:11:58.396Z,29.92
2018-01-24T02:14:27.078Z,25.15
2018-01-24T02:16:55.511Z,28.58
2018-01-24T02:19:23.965Z,26.30
2018-01-24T02:21:52.832Z,24.65
2018-01-24T02:24:21.334Z,25.98
2018-01-24T02:26:49.903Z,25.92
2018-01-24T02:29:18.387Z,25.85
2018-01-24T02:31:46.970Z,31.62
2018-01-24T02:34:15.751Z,24.30
2018-01-24T02:36:44.354Z,25.70
2018-01-24T02:39:15.885Z,24.37
2018-01-24T02:41:44.437Z,24.92
2018-01-24T02:44:13.013Z,22.95
2018-01-24T02:46:41.510Z,31.83
2018-01-24T02:49:10.038Z,32.07
2018-01-24T02:51:38.519Z,27.60
2018-01-24T02:54:07.839Z,24.77
2018-01-24T02:56:36.318Z,26.87
2018-01-24T02:59:04.780Z,24.63
2018-01-24T03:01:33.311Z,26.08
2018-01-24T03:04:01.788Z,24.87
2018-01-24T03:06:30.234Z,26.05
2018-01-24T03:08:58.680Z,30.90
2018-01-24T03:11:27.375Z,25.62
2018-01-24T03:13:55.821Z,27.87
2018-01-24T03:16:24.370Z,25.62
2018-01-24T03:18:52.850Z,22.67
2018-01-24T03:21:21.348Z,28.13
2018-01-24T03:23:49.825Z,29.83
2018-01-24T03:26:18.712Z,31.80
2018-01-24T03:28:47.197Z,31.87
2018-01-24T03:31:15.677Z,31.57
2018-01-24T03:33:44.262Z,33.50
2018-01-24T03:36:12.840Z,33.30
2018-01-24T03:38:41.785Z,36.73
2018-01-24T03:41:10.326Z,36.00
2018-01-24T03:43:38.883Z,33.40
2018-01-24T03:46:07.433Z,48.33
2018-01-24T03:48:35.913Z,36.57
2018-01-24T03:51:04.348Z,38.07
2018-01-24T03:53:32.814Z,40.50
2018-01-24T03:56:01.500Z,31.03
2018-01-24T03:58:29.973Z,28.50
2018-01-24T04:00:58.448Z,35.80
2018-01-24T04:03:27.313Z,34.63
2018-01-24T04:05:55.824Z,34.70
2018-01-24T04:08:24.322Z,32.72
2018-01-24T04:10:53.304Z,36.37
2018-01-24T04:13:21.782Z,35.60
2018-01-24T04:15:50.271Z,28.93
2018-01-24T04:18:19.091Z,26.08
2018-01-24T04:20:47.634Z,29.65
2018-01-24T04:23:16.141Z,32.78
2018-01-24T04:25:44.942Z,28.55
2018-01-24T04:28:13.493Z,26.80
2018-01-24T04:30:42.098Z,23.77
2018-01-24T04:33:10.791Z,37.33
2018-01-24T04:35:39.270Z,26.08
2018-01-24T04:38:07.794Z,25.45
2018-01-24T04:40:36.577Z,36.42
2018-01-24T04:43:05.012Z,30.92
2018-01-24T04:45:33.536Z,25.98
2018-01-24T04:48:02.381Z,26.80
2018-01-24T04:50:31.490Z,35.20
2018-01-24T04:53:00.004Z,34.95
2018-01-24T04:55:28.479Z,34.22
2018-01-24T04:57:58.061Z,27.80
2018-01-24T05:00:26.598Z,28.38
2018-01-24T05:02:55.157Z,32.08
2018-01-24T05:05:23.665Z,25.42
2018-01-24T05:07:52.143Z,29.37
2018-01-24T05:10:20.761Z,30.15
2018-01-24T05:12:49.388Z,20.33
2018-01-24T05:15:17.924Z,21.25
2018-01-24T05:17:46.613Z,28.05
2018-01-24T05:20:15.258Z,20.73
2018-01-24T05:22:44.768Z,36.97
2018-01-24T05:25:13.657Z,27.65
2018-01-24T05:27:42.170Z,26.60
2018-01-24T05:30:11.063Z,25.23
2018-01-24T05:32:39.804Z,36.03
2018-01-24T05:35:08.286Z,32.38
2018-01-24T05:37:37.025Z,21.62
2018-01-24T05:40:05.518Z,30.48
2018-01-24T05:42:34.098Z,36.90
2018-01-24T05:45:02.589Z,35.73
2018-01-24T05:47:31.095Z,40.53
2018-01-24T05:49:59.515Z,50.93
2018-01-24T05:52:27.969Z,34.10
2018-01-24T05:54:56.450Z,32.00
2018-01-24T05:57:24.964Z,44.25
2018-01-24T05:59:53.609Z,32.10
2018-01-24T06:02:22.105Z,38.80
2018-01-24T06:04:50.584Z,34.35
2018-01-24T06:07:19.460Z,29.70
2018-01-24T06:09:48.374Z,24.87
2018-01-24T06:12:16.873Z,35.30
2018-01-24T06:14:45.413Z,37.65
2018-01-24T06:17:14.144Z,39.00
2018-01-24T06:19:42.698Z,33.90
2018-01-24T06:22:11.180Z,29.60
2018-01-24T06:24:40.607Z,44.88
2018-01-24T06:27:09.127Z,39.70
2018-01-24T06:29:37.642Z,32.63
2018-01-24T06:32:06.317Z,31.65
2018-01-24T06:34:34.788Z,36.28
2018-01-24T06:37:03.256Z,30.17
2018-01-24T06:39:31.823Z,41.92
2018-01-24T06:42:00.382Z,29.67
2018-01-24T06:44:28.922Z,29.30
2018-01-24T06:46:57.439Z,35.13
2018-01-24T06:49:25.883Z,51.87
2018-01-24T06:51:57.565Z,46.15
2018-01-24T06:54:26.502Z,37.90
2018-01-24T06:56:55.113Z,48.13
2018-01-24T06:59:24.701Z,39.08
2018-01-24T07:01:59.265Z,32.53
2018-01-24T07:04:27.777Z,38.25
2018-01-24T07:06:56.282Z,28.63
2018-01-24T07:09:24.783Z,36.53
2018-01-24T07:11:53.270Z,38.35
2018-01-24T07:14:33.806Z,32.47
2018-01-24T07:17:02.271Z,32.70
2018-01-24T07:19:30.870Z,32.58
2018-01-24T07:21:59.360Z,29.20
2018-01-24T07:24:28.193Z,32.20
2018-01-24T07:26:56.630Z,29.40
2018-01-24T07:29:25.300Z,37.93
2018-01-24T07:31:53.803Z,29.98
2018-01-24T07:34:22.302Z,28.92
2018-01-24T07:36:51.015Z,26.27
2018-01-24T07:39:19.495Z,26.83
2018-01-24T07:41:47.988Z,33.63
2018-01-24T07:44:16.513Z,26.30
2018-01-24T07:46:45.278Z,36.20
2018-01-24T07:49:14.271Z,21.15
2018-01-24T07:51:43.060Z,29.27
2018-01-24T07:54:11.626Z,31.77
2018-01-24T07:56:40.192Z,30.30
2018-01-24T07:59:09.672Z,26.00
2018-01-24T08:01:38.232Z,27.73
2018-01-24T08:04:06.709Z,32.60
2018-01-24T08:06:35.453Z,25.30
2018-01-24T08:09:04.001Z,37.47
2018-01-24T08:11:32.940Z,24.70
2018-01-24T08:14:01.482Z,24.30
2018-01-24T08:16:29.906Z,19.10
2018-01-24T08:18:58.955Z,20.87
2018-01-24T08:21:27.428Z,18.33
2018-01-24T08:23:55.863Z,28.77
2018-01-24T08:26:24.364Z,37.63
2018-01-24T08:28:52.924Z,31.57
2018-01-24T08:31:21.380Z,27.57
2018-01-24T08:33:49.868Z,22.53
2018-01-24T08:36:18.874Z,32.87
2018-01-24T08:38:47.458Z,29.63
2018-01-24T08:41:16.043Z,28.80
2018-01-24T08:43:44.630Z,23.83
2018-01-24T08:46:13.573Z,22.93
2018-01-24T08:48:42.532Z,33.95
2018-01-24T08:51:11.739Z,29.23
2018-01-24T08:53:40.207Z,26.13
2018-01-24T08:56:09.480Z,27.20
2018-01-24T08:58:37.998Z,21.33
2018-01-24T09:01:06.567Z,25.87
2018-01-24T09:03:35.006Z,27.93
2018-01-24T09:06:03.467Z,21.67
2018-01-24T09:08:31.922Z,25.47
2018-01-24T09:11:00.363Z,31.90
2018-01-24T09:13:29.057Z,22.83
2018-01-24T09:15:57.634Z,25.73
2018-01-24T09:18:26.117Z,23.30
2018-01-24T09:20:54.594Z,33.10
2018-01-24T09:23:23.021Z,24.07
2018-01-24T09:25:51.557Z,22.60
2018-01-24T09:28:20.158Z,24.60
2018-01-24T09:30:48.644Z,30.23
2018-01-24T09:33:17.202Z,23.50
2018-01-24T09:35:45.992Z,31.13
2018-01-24T09:38:14.817Z,36.07
2018-01-24T09:40:43.398Z,27.10
2018-01-24T09:43:12.277Z,28.67
2018-01-24T09:45:40.963Z,29.40
2018-01-24T09:48:09.463Z,26.30
2018-01-24T09:50:38.408Z,27.93
2018-01-24T09:53:06.834Z,27.60
2018-01-24T09:55:35.339Z,29.83
2018-01-24T09:58:03.847Z,31.47
2018-01-24T10:00:32.277Z,28.80
2018-01-24T10:03:00.707Z,35.33
2018-01-24T10:05:29.265Z,29.60
2018-01-24T10:07:57.706Z,36.67
2018-01-24T10:10:26.174Z,36.33
2018-01-24T10:12:54.850Z,31.97
2018-01-24T10:15:23.630Z,30.27
2018-01-24T10:17:52.179Z,31.00
2018-01-24T10:20:21.226Z,28.83
2018-01-24T10:22:49.815Z,37.47
2018-01-24T10:25:18.909Z,48.73
2018-01-24T10:27:47.832Z,26.53
2018-01-24T10:30:16.778Z,33.20
2018-01-24T10:32:45.754Z,29.43
2018-01-24T10:35:14.458Z,27.33
2018-01-24T10:37:43.071Z,32.13
2018-01-24T10:40:12.256Z,26.40
2018-01-24T10:42:40.935Z,27.40
2018-01-24T10:45:09.745Z,29.57
2018-01-24T10:47:38.366Z,24.47
2018-01-24T10:50:06.861Z,23.00
2018-01-24T10:52:35.289Z,25.30
2018-01-24T10:55:03.722Z,26.40
2018-01-24T10:57:32.354Z,26.60
2018-01-24T11:00:00.801Z,23.60
2018-01-24T11:02:29.345Z,21.43
2018-01-24T11:04:57.859Z,22.20
2018-01-24T11:07:26.485Z,24.07
2018-01-24T11:09:54.926Z,22.00
2018-01-24T11:12:23.407Z,18.97
2018-01-24T11:14:51.962Z,16.63
2018-01-24T11:17:20.447Z,19.33
2018-01-24T11:19:49.077Z,19.50
2018-01-24T11:22:18.140Z,16.87
2018-01-24T11:24:46.684Z,18.63
2018-01-24T11:27:15.583Z,14.27
2018-01-24T11:29:44.156Z,15.17
2018-01-24T11:32:12.992Z,15.70
2018-01-24T11:34:42.091Z,17.07
2018-01-24T11:37:10.878Z,18.67
2018-01-24T11:39:39.357Z,22.40
2018-01-24T11:42:07.836Z,17.27
2018-01-24T11:44:36.370Z,15.13
2018-01-24T11:47:04.891Z,16.47
2018-01-24T11:49:33.386Z,14.00
2018-01-24T11:52:01.818Z,15.00
2018-01-24T11:54:30.421Z,14.60
2018-01-24T11:56:58.901Z,11.00
2018-01-24T11:59:27.306Z,16.77
2018-01-24T12:01:55.810Z,12.93
2018-01-24T12:04:25.367Z,11.53
2018-01-24T12:06:53.798Z,11.67
2018-01-24T12:09:22.652Z,11.17
2018-01-24T12:11:52.382Z,13.70
2018-01-24T12:14:20.965Z,12.57
2018-01-24T12:16:49.540Z,11.03
2018-01-24T12:19:18.383Z,11.17
2018-01-24T12:21:46.960Z,11.13
2018-01-24T12:24:15.648Z,19.63
2018-01-24T12:26:44.900Z,10.07
2018-01-24T12:29:13.481Z,9.40
2018-01-24T12:31:42.004Z,15.03
2018-01-24T12:34:10.570Z,11.47
2018-01-24T12:36:39.437Z,8.10
2018-01-24T12:39:07.835Z,7.57
2018-01-24T12:41:36.397Z,9.03
2018-01-24T12:44:04.855Z,10.00
2018-01-24T12:46:33.304Z,8.43
2018-01-24T12:49:01.998Z,8.77
2018-01-24T12:51:30.401Z,8.33
2018-01-24T12:53:58.904Z,6.03
2018-01-24T12:56:27.360Z,6.63
2018-01-24T12:58:55.802Z,7.47
2018-01-24T13:01:24.279Z,8.00
2018-01-24T13:03:53.168Z,6.70
2018-01-24T13:06:21.665Z,5.93
2018-01-24T13:08:50.918Z,5.57
2018-01-24T13:11:19.707Z,5.10
2018-01-24T13:13:48.212Z,6.50
2018-01-24T13:16:17.115Z,4.40
2018-01-24T13:18:45.896Z,4.70
2018-01-24T13:21:14.833Z,4.30
2018-01-24T13:23:43.830Z,3.63
2018-01-24T13:26:12.542Z,4.70
2018-01-24T13:28:41.357Z,4.00
2018-01-24T13:31:10.164Z,4.73
2018-01-24T13:33:38.644Z,5.23
2018-01-24T13:36:07.121Z,4.17
2018-01-24T13:38:35.649Z,3.97
2018-01-24T13:41:04.420Z,3.87
2018-01-24T13:43:32.903Z,3.50
2018-01-24T13:46:01.320Z,5.03
2018-01-24T13:48:30.627Z,3.37
2018-01-24T13:50:59.184Z,3.30
2018-01-24T13:53:27.686Z,7.50
2018-01-24T13:55:56.172Z,3.07
2018-01-24T13:58:24.609Z,2.60
2018-01-24T14:00:53.053Z,4.50
2018-01-24T14:03:21.910Z,2.87
2018-01-24T14:05:50.504Z,3.00
2018-01-24T14:08:19.546Z,2.63
2018-01-24T14:10:48.482Z,2.73
2018-01-24T14:13:17.136Z,2.20
2018-01-24T14:15:45.691Z,1.77
2018-01-24T14:18:14.668Z,3.33
2018-01-24T14:20:44.235Z,2.17
2018-01-24T14:23:12.898Z,3.07
2018-01-24T14:25:41.423Z,2.47
2018-01-24T14:28:09.928Z,4.40
2018-01-24T14:30:38.427Z,2.30
2018-01-24T14:33:07.166Z,4.63
2018-01-24T14:35:35.607Z,7.10
2018-01-24T14:38:04.090Z,2.20
2018-01-24T14:40:32.541Z,2.00
2018-01-24T14:43:01.056Z,2.80
2018-01-24T14:45:29.501Z,3.43
2018-01-24T14:47:58.041Z,3.23
2018-01-24T14:50:26.457Z,1.90
2018-01-24T14:52:54.905Z,3.50
2018-01-24T14:55:23.627Z,6.20
2018-01-24T14:57:52.276Z,2.10
2018-01-24T15:00:20.809Z,4.90
2018-01-24T15:02:49.435Z,4.17
2018-01-24T15:05:17.929Z,2.27
2018-01-24T15:07:47.969Z,8.03
2018-01-24T15:10:17.907Z,5.80
2018-01-24T15:12:46.691Z,1.83
2018-01-24T15:15:15.188Z,1.90
2018-01-24T15:17:44.642Z,1.83
2018-01-24T15:20:13.495Z,1.73
2018-01-24T15:22:42.168Z,1.43
2018-01-24T15:25:11.775Z,2.33
2018-01-24T15:27:40.704Z,6.43
2018-01-24T15:30:09.209Z,2.17
2018-01-24T15:32:37.662Z,1.50
2018-01-24T15:35:06.094Z,2.20
2018-01-24T15:37:34.555Z,1.77
2018-01-24T15:40:03.847Z,3.27
2018-01-24T15:42:32.285Z,2.90
2018-01-24T15:45:00.738Z,2.60
2018-01-24T15:47:29.466Z,2.23
2018-01-24T15:49:57.898Z,2.47
2018-01-24T15:52:26.306Z,2.10
2018-01-24T15:54:54.944Z,4.63
2018-01-24T15:57:23.369Z,4.00
2018-01-24T15:59:51.825Z,2.57
2018-01-24T16:02:20.549Z,3.03
2018-01-24T16:04:49.117Z,2.90
2018-01-24T16:07:17.628Z,3.03
2018-01-24T16:09:46.254Z,2.97
2018-01-24T16:12:14.794Z,3.13
2018-01-24T16:14:43.661Z,2.57
2018-01-24T16:17:12.244Z,3.20
2018-01-24T16:19:41.805Z,2.70
2018-01-24T16:22:10.393Z,4.40
2018-01-24T16:24:39.266Z,2.83
2018-01-24T16:27:07.798Z,2.40
2018-01-24T16:29:37.340Z,3.40
2018-01-24T16:32:05.829Z,3.33
2018-01-24T16:34:34.287Z,2.70
2018-01-24T16:37:02.705Z,4.33
2018-01-24T16:39:31.308Z,6.50
2018-01-24T16:41:59.741Z,4.30
2018-01-24T16:44:28.220Z,4.30
2018-01-24T16:46:56.949Z,2.63
2018-01-24T16:49:25.357Z,3.13
2018-01-24T16:51:53.772Z,2.90
2018-01-24T16:54:22.358Z,2.50
2018-01-24T16:56:50.786Z,2.67
2018-01-24T16:59:19.210Z,7.37
2018-01-24T17:01:47.859Z,3.47
2018-01-24T17:04:16.361Z,3.00
2018-01-24T17:06:44.925Z,2.20
2018-01-24T17:09:13.848Z,3.53
2018-01-24T17:11:42.435Z,3.13
2018-01-24T17:14:10.999Z,1.87
2018-01-24T17:16:39.499Z,2.53
2018-01-24T17:19:07.962Z,1.97
2018-01-24T17:21:36.381Z,1.80
2018-01-24T17:24:05.037Z,3.50
2018-01-24T17:26:33.474Z,4.67
2018-01-24T17:29:01.894Z,3.60
2018-01-24T17:31:30.358Z,1.93
2018-01-24T17:33:58.815Z,2.10
2018-01-24T17:36:27.234Z,2.10
2018-01-24T17:38:55.739Z,2.03
2018-01-24T17:41:24.143Z,1.47
2018-01-24T17:43:52.629Z,2.67
2018-01-24T17:46:21.081Z,1.50
2018-01-24T17:48:49.632Z,10.60
2018-01-24T17:51:18.127Z,2.63
2018-01-24T17:53:46.652Z,1.70
2018-01-24T17:56:15.110Z,2.03
2018-01-24T17:58:43.609Z,1.83
2018-01-24T18:01:12.127Z,1.50
2018-01-24T18:03:40.715Z,1.67
2018-01-24T18:06:12.123Z,4.43
2018-01-24T18:08:40.647Z,2.70
2018-01-24T18:11:09.080Z,3.93
2018-01-24T18:13:37.505Z,2.50
2018-01-24T18:16:06.011Z,4.10
2018-01-24T18:18:34.456Z,1.40
2018-01-24T18:21:02.882Z,1.87
2018-01-24T18:23:31.565Z,1.63
2018-01-24T18:26:00.025Z,2.10
2018-01-24T18:28:28.474Z,1.90
2018-01-24T18:30:57.073Z,1.77
2018-01-24T18:33:25.560Z,1.90
2018-01-24T18:35:54.191Z,2.00
2018-01-24T18:38:22.779Z,2.07
2018-01-24T18:40:51.245Z,2.10
2018-01-24T18:43:19.894Z,2.00
2018-01-24T18:45:49.157Z,2.93
2018-01-24T18:48:17.778Z,4.03
2018-01-24T18:50:46.506Z,2.67
2018-01-24T18:53:14.990Z,2.63
2018-01-24T18:55:43.524Z,4.30
2018-01-24T18:58:12.168Z,4.50
2018-01-24T19:00:40.937Z,2.83
2018-01-24T19:03:09.595Z,2.53
2018-01-24T19:05:38.011Z,2.40
2018-01-24T19:08:06.470Z,2.37
2018-01-24T19:10:34.901Z,2.70
2018-01-24T19:13:03.590Z,2.00
2018-01-24T19:15:32.225Z,4.50
2018-01-24T19:18:00.663Z,2.60
2018-01-24T19:20:29.102Z,3.60
2018-01-24T19:22:57.697Z,2.73
2018-01-24T19:25:26.125Z,2.50
2018-01-24T19:27:54.625Z,2.10
2018-01-24T19:30:23.563Z,2.73
2018-01-24T19:32:52.173Z,2.20
2018-01-24T19:35:20.580Z,2.40
2018-01-24T19:37:49.395Z,4.13
2018-01-24T19:40:17.882Z,5.80
2018-01-24T19:42:46.502Z,2.97
2018-01-24T19:45:15.196Z,3.17
2018-01-24T19:47:44.726Z,1.60
2018-01-24T19:50:13.238Z,1.67
2018-01-24T19:52:41.788Z,1.67
2018-01-24T19:55:10.882Z,1.47
2018-01-24T19:57:39.307Z,1.00
2018-01-24T20:00:07.864Z,1.50
2018-01-24T20:02:36.297Z,5.10
2018-01-24T20:05:04.698Z,2.60
2018-01-24T20:07:33.342Z,1.90
2018-01-24T20:10:01.818Z,1.00
2018-01-24T20:12:30.245Z,1.00
2018-01-24T20:14:58.730Z,4.40
2018-01-24T20:17:27.177Z,2.25
2018-01-24T20:19:55.608Z,0.77
2018-01-24T20:22:24.467Z,0.60
2018-01-24T20:24:52.885Z,0.85
2018-01-24T20:27:21.329Z,0.93
2018-01-24T20:29:49.864Z,1.42
2018-01-24T20:32:18.397Z,0.80
2018-01-24T20:34:47.217Z,3.22
2018-01-24T20:37:15.768Z,2.60
2018-01-24T20:39:44.272Z,1.30
2018-01-24T20:42:12.899Z,0.93
2018-01-24T20:44:41.427Z,1.33
2018-01-24T20:47:09.988Z,2.97
2018-01-24T20:49:38.473Z,4.20
2018-01-24T20:52:07.185Z,3.90
2018-01-24T20:54:35.635Z,2.95
2018-01-24T20:57:04.067Z,1.23
2018-01-24T20:59:32.578Z,1.95
2018-01-24T21:02:00.985Z,5.07
2018-01-24T21:04:30.377Z,2.87
2018-01-24T21:06:58.851Z,1.42
2018-01-24T21:09:27.270Z,4.82
2018-01-24T21:11:55.684Z,2.00
2018-01-24T21:14:24.191Z,1.48
2018-01-24T21:16:52.619Z,1.60
2018-01-24T21:19:21.109Z,5.87
2018-01-24T21:21:49.589Z,4.70
2018-01-24T21:24:18.474Z,1.48
2018-01-24T21:26:46.971Z,10.68
2018-01-24T21:29:28.462Z,2.70
2018-01-24T21:35:25.998Z,1.35
2018-01-24T21:37:54.834Z,2.33
2018-01-24T21:40:23.408Z,2.42
2018-01-24T21:42:52.097Z,0.80
2018-01-24T21:45:20.522Z,1.95
2018-01-24T21:47:49.091Z,2.70
2018-01-24T21:50:17.673Z,0.93
2018-01-24T21:52:46.265Z,2.03
2018-01-24T21:55:15.093Z,3.20
2018-01-24T21:57:44.020Z,1.30
2018-01-24T22:00:12.944Z,1.95
2018-01-24T22:02:41.614Z,1.35
2018-01-24T22:05:10.100Z,2.35
2018-01-24T22:07:38.534Z,0.85
2018-01-24T22:10:07.585Z,2.33
2018-01-24T22:12:36.028Z,1.15
2018-01-24T22:15:04.421Z,1.23
2018-01-24T22:17:32.814Z,1.75
2018-01-24T22:22:35.466Z,0.98
2018-01-24T22:25:04.643Z,1.25
2018-01-24T22:27:33.502Z,5.28
2018-01-24T22:30:02.093Z,1.87
2018-01-24T22:32:30.591Z,0.90
2018-01-24T22:34:59.555Z,4.37
2018-01-24T22:37:28.002Z,1.55
2018-01-24T22:39:56.827Z,3.42
2018-01-24T22:42:25.319Z,1.25
2018-01-24T22:44:54.106Z,1.80
2018-01-24T22:47:22.706Z,0.88
2018-01-24T22:49:51.159Z,1.30
2018-01-24T22:52:19.664Z,1.48
2018-01-24T22:54:48.112Z,1.98
2018-01-24T22:57:16.542Z,1.20
2018-01-24T22:59:45.016Z,1.00
2018-01-24T23:02:13.783Z,0.90
2018-01-24T23:04:42.475Z,7.85
2018-01-24T23:07:11.028Z,0.85
2018-01-24T23:09:39.534Z,1.00
2018-01-24T23:12:07.954Z,2.10
2018-01-24T23:14:36.378Z,0.80
2018-01-24T23:17:04.865Z,2.17
2018-01-24T23:19:33.403Z,0.80
2018-01-24T23:22:01.838Z,1.17
2018-01-24T23:24:30.331Z,1.20
2018-01-24T23:26:58.813Z,0.75
2018-01-24T23:29:27.248Z,0.70
2018-01-24T23:31:55.878Z,0.93
2018-01-24T23:34:24.338Z,0.75
2018-01-24T23:36:52.791Z,0.70
2018-01-24T23:39:22.346Z,0.70
2018-01-24T23:41:50.903Z,2.17
2018-01-24T23:44:19.405Z,0.95
2018-01-24T23:46:48.173Z,2.15
2018-01-24T23:49:16.635Z,0.77
2018-01-24T23:51:45.096Z,1.15
2018-01-24T23:54:13.678Z,1.35
2018-01-24T23:56:43.016Z,1.80
2018-01-24T23:59:12.295Z,1.30
